createdAt,value
2022-11-29T00:01:05.854Z,371.95
2022-11-29T00:03:54.965Z,359.80
2022-11-29T00:06:37.816Z,370.92
2022-11-29T00:09:27.861Z,380.38
2022-11-29T00:12:19.862Z,374.80
2022-11-29T00:15:02.210Z,366.48
2022-11-29T00:17:52.070Z,378.92
2022-11-29T00:20:34.217Z,365.02
2022-11-29T00:23:22.947Z,378.15
2022-11-29T00:26:15.215Z,363.90
2022-11-29T00:29:04.050Z,375.63
2022-11-29T00:31:47.667Z,362.50
2022-11-29T00:34:36.986Z,370.27
2022-11-29T00:37:19.224Z,373.73
2022-11-29T00:40:07.939Z,378.02
2022-11-29T00:42:50.282Z,378.10
2022-11-29T00:45:39.073Z,376.73
2022-11-29T00:48:21.260Z,394.30
2022-11-29T00:51:11.010Z,384.73
2022-11-29T00:53:53.268Z,376.92
2022-11-29T00:56:41.954Z,382.58
2022-11-29T00:59:24.363Z,387.75
2022-11-29T01:02:13.038Z,380.15
2022-11-29T01:05:07.851Z,376.20
2022-11-29T01:07:58.081Z,374.88
2022-11-29T01:10:40.279Z,372.48
2022-11-29T01:13:29.469Z,374.75
2022-11-29T01:16:12.268Z,382.45
2022-11-29T01:19:01.040Z,372.90
2022-11-29T01:21:43.262Z,365.73
2022-11-29T01:24:32.078Z,371.00
2022-11-29T01:27:14.220Z,379.48
2022-11-29T01:30:03.046Z,371.67
2022-11-29T01:32:46.245Z,380.13
2022-11-29T01:35:35.040Z,371.87
2022-11-29T01:38:17.286Z,371.20
2022-11-29T01:41:14.985Z,356.80
2022-11-29T01:44:24.530Z,374.80
2022-11-29T01:47:13.982Z,353.15
2022-11-29T01:49:58.320Z,374.67
2022-11-29T01:52:46.970Z,374.45
2022-11-29T01:55:29.230Z,378.40
2022-11-29T01:58:17.934Z,375.73
2022-11-29T02:01:00.218Z,371.33
2022-11-29T02:03:55.929Z,383.67
2022-11-29T02:06:45.878Z,364.50
2022-11-29T02:09:36.922Z,383.52
2022-11-29T02:13:13.973Z,371.52
2022-11-29T02:16:17.294Z,376.77
2022-11-29T02:19:19.893Z,388.67
2022-11-29T02:22:26.862Z,378.48
2022-11-29T02:25:42.292Z,381.58
2022-11-29T02:28:37.964Z,376.33
2022-11-29T02:31:35.225Z,383.60
2022-11-29T02:34:54.979Z,394.08
2022-11-29T02:37:58.210Z,396.23
2022-11-29T02:41:05.031Z,392.63
2022-11-29T02:44:30.203Z,378.95
2022-11-29T02:47:54.910Z,394.65
2022-11-29T02:51:18.260Z,393.90
2022-11-29T02:54:15.971Z,402.55
2022-11-29T02:57:14.882Z,411.70
2022-11-29T03:00:18.908Z,401.77
2022-11-29T03:03:48.819Z,418.08
2022-11-29T03:07:05.020Z,417.95
2022-11-29T03:10:04.282Z,413.95
2022-11-29T03:12:56.867Z,427.38
2022-11-29T03:15:47.863Z,446.67
2022-11-29T03:19:00.336Z,438.63
2022-11-29T03:21:55.858Z,446.77
2022-11-29T03:25:09.563Z,439.83
2022-11-29T03:31:04.859Z,435.73
2022-11-29T03:34:08.929Z,418.85
2022-11-29T03:37:15.015Z,423.13
2022-11-29T03:40:03.599Z,421.73
2022-11-29T03:43:19.958Z,426.83
2022-11-29T03:46:31.018Z,401.02
2022-11-29T03:49:29.858Z,376.88
2022-11-29T03:52:30.233Z,354.25
2022-11-29T03:55:47.798Z,332.95
2022-11-29T03:59:07.206Z,321.30
2022-11-29T04:02:35.994Z,323.60
2022-11-29T04:05:43.831Z,302.50
2022-11-29T04:08:57.839Z,286.85
2022-11-29T04:12:22.986Z,272.02
2022-11-29T04:15:48.069Z,267.85
2022-11-29T04:18:45.199Z,259.38
2022-11-29T04:22:10.247Z,250.77
2022-11-29T04:25:25.229Z,255.13
2022-11-29T04:28:51.968Z,230.82
2022-11-29T04:32:24.337Z,238.48
2022-11-29T04:35:27.823Z,224.02
2022-11-29T04:38:47.361Z,213.30
2022-11-29T04:41:54.888Z,205.32
2022-11-29T04:45:08.359Z,202.30
2022-11-29T04:47:59.889Z,197.82
2022-11-29T04:51:15.910Z,191.05
2022-11-29T04:54:06.924Z,183.35
2022-11-29T04:57:15.255Z,181.52
2022-11-29T05:00:09.942Z,177.82
2022-11-29T05:03:12.574Z,188.02
2022-11-29T05:06:18.955Z,172.45
2022-11-29T05:09:36.242Z,172.43
2022-11-29T05:12:39.865Z,163.10
2022-11-29T05:15:59.242Z,171.95
2022-11-29T05:19:21.942Z,165.13
2022-11-29T05:22:37.391Z,164.50
2022-11-29T05:25:40.219Z,173.82
2022-11-29T05:28:40.921Z,171.88
2022-11-29T05:31:37.986Z,178.63
2022-11-29T05:34:20.369Z,166.55
2022-11-29T05:37:35.894Z,183.82
2022-11-29T05:40:37.324Z,203.73
2022-11-29T05:43:40.863Z,200.95
2022-11-29T05:46:44.213Z,191.25
2022-11-29T05:49:42.931Z,203.73
2022-11-29T05:52:38.866Z,193.90
2022-11-29T05:55:48.920Z,187.80
2022-11-29T05:58:54.227Z,190.23
2022-11-29T06:01:47.947Z,192.93
2022-11-29T06:04:47.174Z,193.73
2022-11-29T06:07:45.967Z,197.32
2022-11-29T06:10:40.852Z,197.10
2022-11-29T06:14:02.063Z,195.10
2022-11-29T06:16:58.937Z,210.80
2022-11-29T06:19:52.887Z,210.95
2022-11-29T06:23:03.138Z,211.57
2022-11-29T06:26:11.926Z,201.52
2022-11-29T06:29:03.233Z,209.25
2022-11-29T06:32:00.999Z,217.52
2022-11-29T06:35:15.265Z,207.35
2022-11-29T06:38:05.900Z,221.68
2022-11-29T06:40:48.169Z,204.93
2022-11-29T06:43:36.936Z,218.20
2022-11-29T06:46:34.268Z,215.40
2022-11-29T06:49:35.907Z,224.30
2022-11-29T06:52:41.227Z,238.27
2022-11-29T06:55:35.965Z,256.70
2022-11-29T06:58:21.333Z,269.25
2022-11-29T07:01:50.962Z,271.52
2022-11-29T07:04:48.580Z,270.45
2022-11-29T07:07:38.930Z,264.17
2022-11-29T07:10:32.894Z,291.85
2022-11-29T07:13:15.607Z,313.60
2022-11-29T07:16:17.023Z,330.75
2022-11-29T07:19:07.357Z,341.25
2022-11-29T07:22:23.846Z,339.08
2022-11-29T07:25:11.781Z,362.73
2022-11-29T07:28:11.953Z,369.65
2022-11-29T07:31:09.513Z,358.98
2022-11-29T07:34:23.990Z,349.58
2022-11-29T07:37:35.219Z,371.58
2022-11-29T07:40:37.434Z,368.52
2022-11-29T07:43:31.842Z,345.50
2022-11-29T07:46:20.952Z,316.00
2022-11-29T07:49:03.058Z,354.52
2022-11-29T07:51:51.910Z,314.10
2022-11-29T07:54:34.269Z,297.52
2022-11-29T07:57:22.907Z,267.30
2022-11-29T08:00:07.206Z,242.52
2022-11-29T08:02:56.920Z,246.38
2022-11-29T08:05:47.147Z,208.82
2022-11-29T08:08:28.926Z,212.85
2022-11-29T08:11:20.159Z,192.55
2022-11-29T08:14:09.873Z,185.35
2022-11-29T08:16:58.779Z,171.43
2022-11-29T08:19:41.162Z,168.68
2022-11-29T08:22:29.813Z,153.20
2022-11-29T08:25:14.192Z,152.93
2022-11-29T08:28:02.780Z,158.70
2022-11-29T08:30:52.854Z,156.40
2022-11-29T08:33:39.522Z,149.35
2022-11-29T08:36:31.916Z,140.65
2022-11-29T08:39:20.798Z,135.63
2022-11-29T08:42:10.000Z,130.98
2022-11-29T08:44:52.088Z,125.75
2022-11-29T08:47:43.870Z,122.90
2022-11-29T08:50:32.180Z,119.90
2022-11-29T08:53:31.789Z,124.60
2022-11-29T08:57:16.636Z,119.55
2022-11-29T08:59:38.796Z,118.25
2022-11-29T09:02:27.812Z,121.68
2022-11-29T09:05:24.737Z,116.68
2022-11-29T09:08:13.840Z,126.70
2022-11-29T09:10:56.159Z,116.95
2022-11-29T09:13:44.963Z,130.45
2022-11-29T09:16:30.225Z,125.30
2022-11-29T09:19:21.821Z,128.18
2022-11-29T09:22:04.689Z,128.52
2022-11-29T09:24:54.792Z,140.32
2022-11-29T09:27:37.135Z,137.00
2022-11-29T09:30:26.824Z,146.23
2022-11-29T09:33:09.177Z,147.95
2022-11-29T09:35:57.777Z,129.57
2022-11-29T09:38:41.181Z,128.82
2022-11-29T09:41:45.564Z,128.65
2022-11-29T09:44:46.287Z,143.00
2022-11-29T09:48:05.901Z,137.80
2022-11-29T09:51:00.241Z,145.13
2022-11-29T09:53:54.910Z,157.05
2022-11-29T09:56:46.214Z,148.25
2022-11-29T09:59:51.931Z,148.00
2022-11-29T10:02:46.466Z,146.77
2022-11-29T10:05:54.863Z,140.70
2022-11-29T10:08:48.208Z,148.38
2022-11-29T10:12:00.877Z,150.77
2022-11-29T10:14:53.271Z,148.45
2022-11-29T10:17:56.998Z,141.57
2022-11-29T10:20:49.253Z,141.25
2022-11-29T10:24:00.839Z,148.73
2022-11-29T10:26:44.570Z,135.70
2022-11-29T10:29:33.919Z,153.27
2022-11-29T10:32:22.628Z,131.48
2022-11-29T10:35:20.774Z,143.18
2022-11-29T10:38:31.663Z,141.48
2022-11-29T10:41:31.864Z,136.82
2022-11-29T10:44:14.214Z,143.75
2022-11-29T10:47:09.312Z,141.52
2022-11-29T10:49:53.184Z,130.07
2022-11-29T10:52:42.840Z,129.23
2022-11-29T10:55:26.208Z,132.80
2022-11-29T10:58:35.816Z,135.38
2022-11-29T11:01:29.849Z,138.57
2022-11-29T11:04:57.864Z,142.35
2022-11-29T11:07:46.982Z,131.55
2022-11-29T11:10:36.157Z,136.77
2022-11-29T11:13:34.846Z,152.90
2022-11-29T11:16:31.557Z,148.68
2022-11-29T11:19:41.857Z,147.32
2022-11-29T11:22:30.154Z,147.82
2022-11-29T11:25:43.861Z,146.18
2022-11-29T11:28:33.244Z,150.68
2022-11-29T11:31:21.817Z,144.00
2022-11-29T11:34:04.327Z,153.45
2022-11-29T11:36:52.873Z,162.93
2022-11-29T11:39:42.927Z,154.07
2022-11-29T11:42:45.910Z,142.60
2022-11-29T11:45:42.818Z,160.30
2022-11-29T11:48:25.736Z,152.32
2022-11-29T11:51:15.924Z,154.90
2022-11-29T11:54:05.169Z,169.43
2022-11-29T11:56:48.013Z,160.25
2022-11-29T11:59:37.184Z,164.82
2022-11-29T12:02:53.024Z,162.43
2022-11-29T12:05:35.175Z,175.18
2022-11-29T12:08:27.795Z,175.18
2022-11-29T12:11:20.893Z,172.70
2022-11-29T12:14:13.897Z,165.40
2022-11-29T12:17:05.405Z,191.00
2022-11-29T12:20:03.926Z,169.52
2022-11-29T12:23:01.239Z,171.20
2022-11-29T12:25:51.949Z,184.20
2022-11-29T12:28:39.706Z,178.70
2022-11-29T12:32:06.854Z,186.75
2022-11-29T12:35:11.848Z,176.18
2022-11-29T12:38:23.122Z,183.00
2022-11-29T12:41:53.632Z,175.30
2022-11-29T12:45:11.761Z,178.80
2022-11-29T12:48:34.186Z,184.95
2022-11-29T12:51:36.885Z,194.15
2022-11-29T12:54:39.977Z,188.77
2022-11-29T12:58:17.159Z,187.52
2022-11-29T13:01:13.235Z,194.02
2022-11-29T13:04:11.829Z,207.88
2022-11-29T13:07:28.824Z,200.68
2022-11-29T13:10:24.003Z,193.32
2022-11-29T13:13:35.120Z,200.40
2022-11-29T13:16:35.935Z,213.35
2022-11-29T13:19:49.430Z,213.82
2022-11-29T13:22:43.891Z,217.10
2022-11-29T13:25:43.181Z,223.07
2022-11-29T13:28:37.969Z,231.63
2022-11-29T13:31:29.939Z,216.55
2022-11-29T13:34:25.908Z,229.40
2022-11-29T13:37:37.180Z,226.98
2022-11-29T13:40:50.904Z,226.10
2022-11-29T13:43:57.119Z,212.90
2022-11-29T13:46:57.890Z,202.30
2022-11-29T13:50:03.432Z,236.13
2022-11-29T13:52:52.848Z,221.55
2022-11-29T13:55:41.842Z,241.07
2022-11-29T13:58:48.758Z,218.25
2022-11-29T14:01:37.897Z,217.43
2022-11-29T14:04:53.763Z,253.13
2022-11-29T14:07:48.984Z,226.88
2022-11-29T14:10:38.900Z,237.02
2022-11-29T14:13:23.114Z,248.52
2022-11-29T14:16:20.771Z,244.48
2022-11-29T14:19:26.660Z,246.77
2022-11-29T14:22:36.383Z,246.02
2022-11-29T14:25:52.457Z,253.45
2022-11-29T14:29:03.630Z,249.13
2022-11-29T14:32:05.160Z,243.73
2022-11-29T14:35:18.969Z,258.30
2022-11-29T14:38:48.717Z,259.95
2022-11-29T14:42:05.736Z,243.40
2022-11-29T14:45:13.615Z,246.05
2022-11-29T14:48:21.895Z,264.02
2022-11-29T14:51:30.785Z,257.75
2022-11-29T14:54:50.658Z,261.73
2022-11-29T14:58:08.321Z,260.17
2022-11-29T15:04:31.047Z,263.67
2022-11-29T15:10:46.078Z,258.88
2022-11-29T15:13:48.308Z,255.20
2022-11-29T15:20:26.484Z,250.27
2022-11-29T15:23:30.784Z,248.63
2022-11-29T15:26:26.491Z,237.20
2022-11-29T15:29:36.644Z,253.50
2022-11-29T15:32:52.768Z,252.90
2022-11-29T15:38:46.275Z,242.30
2022-11-29T15:41:45.026Z,243.38
2022-11-29T15:44:41.223Z,249.10
2022-11-29T15:47:42.298Z,253.02
2022-11-29T15:50:28.444Z,252.90
2022-11-29T15:53:28.764Z,253.95
2022-11-29T15:56:54.925Z,244.45
2022-11-29T16:00:11.070Z,255.73
2022-11-29T16:03:15.127Z,254.23
2022-11-29T16:06:30.278Z,267.45
2022-11-29T16:09:33.220Z,270.92
2022-11-29T16:12:27.215Z,269.60
2022-11-29T16:15:23.256Z,272.13
2022-11-29T16:18:30.369Z,264.63
2022-11-29T16:21:29.984Z,269.88
2022-11-29T16:24:31.444Z,257.08
2022-11-29T16:27:37.884Z,254.68
2022-11-29T16:30:43.059Z,258.83
2022-11-29T16:33:48.692Z,250.13
2022-11-29T16:40:05.130Z,249.10
2022-11-29T16:43:26.993Z,246.25
2022-11-29T16:46:52.149Z,260.00
2022-11-29T16:49:59.066Z,258.83
2022-11-29T16:52:56.179Z,256.10
2022-11-29T16:55:59.951Z,267.88
2022-11-29T16:59:25.096Z,268.35
2022-11-29T17:02:26.370Z,260.63
2022-11-29T17:05:18.337Z,268.40
2022-11-29T17:08:11.414Z,262.33
2022-11-29T17:11:23.307Z,270.58
2022-11-29T17:14:06.657Z,264.08
2022-11-29T17:16:52.308Z,273.58
2022-11-29T17:19:42.647Z,254.65
2022-11-29T17:22:29.197Z,261.45
2022-11-29T17:25:22.993Z,256.70
2022-11-29T17:28:13.227Z,251.52
2022-11-29T17:30:56.027Z,262.23
2022-11-29T17:33:47.207Z,245.35
2022-11-29T17:36:30.645Z,262.20
2022-11-29T17:39:23.081Z,251.55
2022-11-29T17:42:06.022Z,253.80
2022-11-29T17:44:57.076Z,262.05
2022-11-29T17:47:46.179Z,249.32
2022-11-29T17:50:30.823Z,263.45
2022-11-29T17:53:24.152Z,261.55
2022-11-29T17:56:18.599Z,262.38
2022-11-29T17:59:11.196Z,265.95
2022-11-29T18:02:01.199Z,272.15
2022-11-29T18:04:58.065Z,269.25
2022-11-29T18:08:06.146Z,265.00
2022-11-29T18:10:50.042Z,268.42
2022-11-29T18:13:44.058Z,258.60
2022-11-29T18:16:39.204Z,263.20
2022-11-29T18:19:24.160Z,259.95
2022-11-29T18:22:14.133Z,256.20
2022-11-29T18:25:09.985Z,264.90
2022-11-29T18:28:06.121Z,255.00
2022-11-29T18:30:49.213Z,258.15
2022-11-29T18:33:42.178Z,269.88
2022-11-29T18:36:40.782Z,275.50
2022-11-29T18:39:27.597Z,268.85
2022-11-29T18:42:18.202Z,257.92
2022-11-29T18:45:02.589Z,255.43
2022-11-29T18:47:53.179Z,283.95
2022-11-29T18:50:36.639Z,276.08
2022-11-29T18:53:26.412Z,273.40
2022-11-29T18:56:17.177Z,272.70
2022-11-29T18:59:08.190Z,288.60
2022-11-29T19:01:59.105Z,272.40
2022-11-29T19:04:45.975Z,289.50
2022-11-29T19:07:39.231Z,282.33
2022-11-29T19:10:23.641Z,278.58
2022-11-29T19:13:14.168Z,281.35
2022-11-29T19:16:04.461Z,283.98
2022-11-29T19:19:03.151Z,266.50
2022-11-29T19:21:46.722Z,283.25
2022-11-29T19:24:36.222Z,261.85
2022-11-29T19:27:18.613Z,282.92
2022-11-29T19:30:08.471Z,276.20
2022-11-29T19:32:52.753Z,283.02
2022-11-29T19:35:44.127Z,268.45
2022-11-29T19:38:28.570Z,286.77
2022-11-29T19:41:29.202Z,283.90
2022-11-29T19:44:14.192Z,286.73
2022-11-29T19:47:03.891Z,284.25
2022-11-29T19:49:46.954Z,281.75
2022-11-29T19:52:36.835Z,286.52
2022-11-29T19:55:19.107Z,277.50
2022-11-29T19:58:07.827Z,283.65
2022-11-29T20:00:50.104Z,285.90
2022-11-29T20:03:38.743Z,275.52
2022-11-29T20:06:21.090Z,278.92
2022-11-29T20:09:09.835Z,276.95
2022-11-29T20:11:58.814Z,265.35
2022-11-29T20:14:47.706Z,273.45
2022-11-29T20:17:36.743Z,293.73
2022-11-29T20:20:25.190Z,272.67
2022-11-29T20:23:06.921Z,287.05
2022-11-29T20:25:52.559Z,289.27
2022-11-29T20:28:41.833Z,282.02
2022-11-29T20:31:31.836Z,281.83
2022-11-29T20:34:15.080Z,285.05
2022-11-29T20:37:21.782Z,286.33
2022-11-29T20:40:38.733Z,281.42
2022-11-29T20:43:58.119Z,284.30
2022-11-29T20:46:43.894Z,272.63
2022-11-29T20:49:26.212Z,273.67
2022-11-29T20:52:19.816Z,282.95
2022-11-29T20:55:08.783Z,264.08
2022-11-29T20:57:57.830Z,266.42
2022-11-29T21:00:46.074Z,276.05
2022-11-29T21:03:28.930Z,267.80
2022-11-29T21:06:23.767Z,280.10
2022-11-29T21:09:06.914Z,280.52
2022-11-29T21:11:55.796Z,289.55
2022-11-29T21:14:38.337Z,287.50
2022-11-29T21:17:33.150Z,287.90
2022-11-29T21:20:23.101Z,280.92
2022-11-29T21:23:27.804Z,283.33
2022-11-29T21:26:26.309Z,281.88
2022-11-29T21:29:23.731Z,286.65
2022-11-29T21:32:19.024Z,286.25
2022-11-29T21:35:01.742Z,288.08
2022-11-29T21:37:44.059Z,297.42
2022-11-29T21:40:32.694Z,291.98
2022-11-29T21:43:15.019Z,273.08
2022-11-29T21:46:04.865Z,285.00
2022-11-29T21:48:47.226Z,276.35
2022-11-29T21:51:35.787Z,289.73
2022-11-29T21:54:18.092Z,299.98
2022-11-29T21:57:06.683Z,279.02
2022-11-29T21:59:49.105Z,277.42
2022-11-29T22:02:37.973Z,289.52
2022-11-29T22:05:26.685Z,278.65
2022-11-29T22:08:21.798Z,278.23
2022-11-29T22:11:12.066Z,285.30
2022-11-29T22:14:12.789Z,284.83
2022-11-29T22:16:57.614Z,273.67
2022-11-29T22:19:50.756Z,291.27
2022-11-29T22:22:32.939Z,273.15
2022-11-29T22:25:21.764Z,283.10
2022-11-29T22:28:03.911Z,281.02
2022-11-29T22:30:52.743Z,284.45
2022-11-29T22:33:42.121Z,283.90
2022-11-29T22:36:23.795Z,275.60
2022-11-29T22:39:14.113Z,266.95
2022-11-29T22:41:55.800Z,276.48
2022-11-29T22:44:44.280Z,282.60
2022-11-29T22:47:26.700Z,270.63
2022-11-29T22:50:18.021Z,289.33
2022-11-29T22:53:01.713Z,290.98
2022-11-29T22:55:50.019Z,275.60
2022-11-29T22:58:32.814Z,278.90
2022-11-29T23:01:22.876Z,292.13
2022-11-29T23:04:14.733Z,292.15
2022-11-29T23:07:09.703Z,285.98
2022-11-29T23:09:58.729Z,280.05
2022-11-29T23:12:47.658Z,282.25
2022-11-29T23:15:36.863Z,287.55
2022-11-29T23:18:19.066Z,285.95
2022-11-29T23:21:14.795Z,289.00
2022-11-29T23:24:03.765Z,279.20
2022-11-29T23:26:48.365Z,282.40
2022-11-29T23:29:36.639Z,281.27
2022-11-29T23:32:25.084Z,286.20
2022-11-29T23:35:06.736Z,290.58
2022-11-29T23:37:55.089Z,280.83
2022-11-29T23:40:36.738Z,295.10
2022-11-29T23:43:25.716Z,282.63
2022-11-29T23:46:19.830Z,295.13
2022-11-29T23:49:01.994Z,297.65
2022-11-29T23:51:50.719Z,285.48
2022-11-29T23:54:39.637Z,275.55
2022-11-29T23:57:22.078Z,300.00
